Cmb Sakura — 3EGO3 — position and weather

sailwx.info

Track history (hours):
 
Tides and Currents Weather Stations Pressure Air Temp Water Temp Dewpoint Dewpoint Depression Visibility Wind Speed Wind Dir Waves Ship Positions

Cmb Sakura

Last reported at 2017-Aug-17 00:29 UTC. Time now 2017-Aug-20 23:02 UTC.
Position N 32°07' E 119°55'.

Length 225 m; draft 10.5 m.

Type: Cargo ship. MMSI: 371784000.

Date/timePositionNaut miles runAvg speedWind from/ knotsBaromVisibWave heightAir tempDewpointWater temp
2017-Aug-17 00:29N 32°07' E 119°55'5 9.9
2017-Aug-17 00:00N 32°02' E 119°57'5 8.6
2017-Aug-16 23:27N 31°59' E 120°00'4 9.1
2017-Aug-16 23:00N 31°57' E 120°05'5 9.3
2017-Aug-16 22:30N 31°56' E 120°10'3 6.5
2017-Aug-16 22:00N 31°56' E 120°14'5 9.7
2017-Aug-16 21:30N 31°58' E 120°19'4 8.3
2017-Aug-16 21:01N 32°00' E 120°23'4 8.3
2017-Aug-16 20:30N 32°02' E 120°28'5 9.8
2017-Aug-16 19:58N 32°01' E 120°34'24 8.4
2017-Aug-16 17:09N 31°47' E 120°56'110.1
2017-Aug-16 17:00N 31°47' E 120°58'510.2
2017-Aug-16 16:29N 31°46' E 121°04'510.4
2017-Aug-16 15:59N 31°42' E 121°09'5 9.4
2017-Aug-16 15:28N 31°39' E 121°13'610.3
2017-Aug-16 14:55N 31°35' E 121°18'511.0
2017-Aug-16 14:30N 31°32' E 121°22'611.5
2017-Aug-16 14:00N 31°29' E 121°27'4 9.0
2017-Aug-16 13:30N 31°25' E 121°31'5 9.3
2017-Aug-16 13:00N 31°23' E 121°36'510.5
2017-Aug-16 12:30N 31°20' E 121°41'510.6
2017-Aug-16 12:00N 31°18' E 121°46'510.5
2017-Aug-16 11:30N 31°16' E 121°52'611.3
2017-Aug-16 11:00N 31°15' E 121°59'510.3
2017-Aug-16 10:30N 31°14' E 122°05'4 8.2
2017-Aug-16 10:00N 31°12' E 122°09'4 7.5
2017-Aug-16 09:30N 31°10' E 122°12'4 8.7
2017-Aug-16 09:00N 31°07' E 122°16'4 8.5
2017-Aug-16 08:29N 31°06' E 122°21'3 6.5
2017-Aug-16 08:00N 31°07' E 122°25'4 8.0
2017-Aug-16 07:27N 31°07' E 122°30'8 1.1
2017-Aug-16 00:01N 31°10' E 122°39'0 0.0
2017-Aug-15 23:31N 31°11' E 122°39'0 0.1
2017-Aug-15 23:25N 31°11' E 122°39'0 0.1
2017-Aug-15 21:30N 31°11' E 122°39'2 4.6
2017-Aug-15 21:00N 31°11' E 122°41'4 8.5
2017-Aug-15 20:30N 31°09' E 122°45'811.2
2017-Aug-15 19:46N 31°03' E 122°53'312.6
2017-Aug-15 19:30N 31°02' E 122°56'611.7
2017-Aug-15 19:00N 30°60' E 123°03'6410.4
2017-Aug-15 12:53N 29°56' E 123°07'411.9
2017-Aug-15 12:31N 29°52' E 123°04'712.4
2017-Aug-15 11:58N 29°49' E 122°58'612.4
2017-Aug-15 11:30N 29°46' E 122°52'612.4
2017-Aug-15 11:01N 29°43' E 122°46'612.3
2017-Aug-15 10:30N 29°41' E 122°39'612.1
2017-Aug-15 10:00N 29°40' E 122°32'612.4
2017-Aug-15 09:30N 29°42' E 122°26'511.0
2017-Aug-15 09:00N 29°44' E 122°20'5 9.0
2017-Aug-15 08:30N 29°47' E 122°16'5 9.1
2017-Aug-15 08:01N 29°50' E 122°12'510.8
2017-Aug-15 07:30N 29°55' E 122°09'2 4.4
2017-Aug-15 07:00N 29°54' E 122°06'0 0.2
2017-Aug-15 06:22N 29°54' E 122°06'0 0.0
2017-Aug-15 05:58N 29°54' E 122°06'0 0.0
2017-Aug-15 04:58N 29°54' E 122°06'0 0.0
2017-Aug-15 04:28N 29°54' E 122°06'0 0.0
2017-Aug-15 03:58N 29°54' E 122°06'0 0.0
2017-Aug-15 03:28N 29°54' E 122°06'0 0.0
2017-Aug-15 02:58N 29°54' E 122°06'0 0.0
2017-Aug-15 02:28N 29°54' E 122°06'0 0.0
2017-Aug-15 01:59N 29°54' E 122°06'0 0.0
2017-Aug-15 01:28N 29°54' E 122°06'0 0.0
2017-Aug-15 00:58N 29°54' E 122°06'0 0.0
2017-Aug-15 00:28N 29°54' E 122°06'0 0.0
2017-Aug-14 23:58N 29°54' E 122°06'0 0.0
2017-Aug-14 23:29N 29°54' E 122°06'0 0.0
2017-Aug-14 22:52N 29°54' E 122°06'0 0.0
2017-Aug-14 22:28N 29°54' E 122°06'0 0.0
2017-Aug-14 21:52N 29°54' E 122°06'0 0.0
2017-Aug-14 21:28N 29°54' E 122°06'0 0.0
2017-Aug-14 20:52N 29°54' E 122°06'0 0.0
2017-Aug-14 20:28N 29°54' E 122°06'0 0.0
2017-Aug-14 19:52N 29°54' E 122°06'0 0.0
2017-Aug-14 19:28N 29°54' E 122°06'0 0.0
2017-Aug-14 18:52N 29°54' E 122°06'0 0.0
2017-Aug-14 18:10N 29°54' E 122°06'0 0.3
2017-Aug-14 17:58N 29°54' E 122°06'0 0.1
2017-Aug-14 17:29N 29°54' E 122°06'0 0.0
2017-Aug-14 16:58N 29°54' E 122°06'0 0.0
2017-Aug-14 16:28N 29°54' E 122°06'0 0.0
2017-Aug-14 15:58N 29°54' E 122°06'0 0.0
2017-Aug-14 15:22N 29°54' E 122°06'0 0.0
2017-Aug-14 14:58N 29°54' E 122°06'0 0.0
2017-Aug-14 14:28N 29°54' E 122°06'0 0.0
2017-Aug-14 13:58N 29°54' E 122°06'0 0.0
2017-Aug-14 13:28N 29°54' E 122°06'0 0.0
2017-Aug-14 12:52N 29°54' E 122°06'0 0.0
2017-Aug-14 12:28N 29°54' E 122°06'0 0.0
2017-Aug-14 11:58N 29°54' E 122°06'0 0.0
2017-Aug-14 11:28N 29°54' E 122°06'0 0.0
2017-Aug-14 10:46N 29°54' E 122°06'0 0.0
2017-Aug-14 10:28N 29°54' E 122°06'0 0.0
2017-Aug-14 09:58N 29°54' E 122°06'0 0.0
2017-Aug-14 09:25N 29°54' E 122°06'0 0.0
2017-Aug-14 08:58N 29°54' E 122°06'0 0.0
2017-Aug-14 08:28N 29°54' E 122°06'0 0.0
2017-Aug-14 07:46N 29°54' E 122°06'0 0.0
2017-Aug-14 07:28N 29°54' E 122°06'0 0.1
2017-Aug-14 07:01N 29°54' E 122°06'1 2.1
2017-Aug-14 06:30N 29°55' E 122°07'3 5.8
2017-Aug-14 06:00N 29°54' E 122°10'5 9.3
2017-Aug-14 05:30N 29°50' E 122°13'611.0
2017-Aug-14 05:00N 29°46' E 122°17'4 7.6
2017-Aug-14 04:30N 29°46' E 122°22'3 5.6
2017-Aug-14 04:00N 29°46' E 122°25'2 4.7
2017-Aug-14 03:30N 29°46' E 122°28'0 0.1
2017-Aug-14 02:44N 29°45' E 122°28'0 0.2
2017-Aug-14 02:26N 29°45' E 122°28'0 0.0
2017-Aug-14 01:59N 29°45' E 122°28'0 0.1
2017-Aug-14 01:29N 29°45' E 122°28'0 0.1
2017-Aug-14 00:59N 29°45' E 122°28'0 0.0
2017-Aug-14 00:29N 29°45' E 122°28'0 0.1
2017-Aug-13 23:59N 29°45' E 122°28'0 0.0
2017-Aug-13 23:26N 29°45' E 122°28'0 0.0
2017-Aug-13 22:59N 29°45' E 122°28'0 0.1
2017-Aug-13 22:14N 29°45' E 122°28'0 0.3
2017-Aug-13 21:53N 29°46' E 122°28'0 0.8
2017-Aug-13 21:30N 29°46' E 122°28'3 5.4
2017-Aug-13 21:00N 29°46' E 122°31'5 9.5
2017-Aug-13 20:30N 29°46' E 122°37'510.3
2017-Aug-13 19:59N 29°47' E 122°43'8011.2
2017-Aug-13 12:47N 28°44' E 123°41'311.9
2017-Aug-13 12:30N 28°41' E 123°43'  
Track history (hours):
 
Tides and Currents Weather Stations Pressure Air Temp Water Temp Dewpoint Dewpoint Depression Visibility Wind Speed Wind Dir Waves Ship Positions

Cmb Sakura

Last reported at 2017-Aug-17 00:29 UTC. Time now 2017-Aug-20 23:02 UTC.
Position N 32°07' E 119°55'.

Length 225 m; draft 10.5 m.

Type: Cargo ship. MMSI: 371784000.

Date/timePositionNaut miles runAvg speedWind from/ knotsBaromVisibWave heightAir tempDewpointWater temp
2017-Aug-17 00:29N 32°07' E 119°55'5 9.9
2017-Aug-17 00:00N 32°02' E 119°57'5 8.6
2017-Aug-16 23:27N 31°59' E 120°00'4 9.1
2017-Aug-16 23:00N 31°57' E 120°05'5 9.3
2017-Aug-16 22:30N 31°56' E 120°10'3 6.5
2017-Aug-16 22:00N 31°56' E 120°14'5 9.7
2017-Aug-16 21:30N 31°58' E 120°19'4 8.3
2017-Aug-16 21:01N 32°00' E 120°23'4 8.3
2017-Aug-16 20:30N 32°02' E 120°28'5 9.8
2017-Aug-16 19:58N 32°01' E 120°34'24 8.4
2017-Aug-16 17:09N 31°47' E 120°56'110.1
2017-Aug-16 17:00N 31°47' E 120°58'510.2
2017-Aug-16 16:29N 31°46' E 121°04'510.4
2017-Aug-16 15:59N 31°42' E 121°09'5 9.4
2017-Aug-16 15:28N 31°39' E 121°13'610.3
2017-Aug-16 14:55N 31°35' E 121°18'511.0
2017-Aug-16 14:30N 31°32' E 121°22'611.5
2017-Aug-16 14:00N 31°29' E 121°27'4 9.0
2017-Aug-16 13:30N 31°25' E 121°31'5 9.3
2017-Aug-16 13:00N 31°23' E 121°36'510.5
2017-Aug-16 12:30N 31°20' E 121°41'510.6
2017-Aug-16 12:00N 31°18' E 121°46'510.5
2017-Aug-16 11:30N 31°16' E 121°52'611.3
2017-Aug-16 11:00N 31°15' E 121°59'510.3
2017-Aug-16 10:30N 31°14' E 122°05'4 8.2
2017-Aug-16 10:00N 31°12' E 122°09'4 7.5
2017-Aug-16 09:30N 31°10' E 122°12'4 8.7
2017-Aug-16 09:00N 31°07' E 122°16'4 8.5
2017-Aug-16 08:29N 31°06' E 122°21'3 6.5
2017-Aug-16 08:00N 31°07' E 122°25'4 8.0
2017-Aug-16 07:27N 31°07' E 122°30'8 1.1
2017-Aug-16 00:01N 31°10' E 122°39'0 0.0
2017-Aug-15 23:31N 31°11' E 122°39'0 0.1
2017-Aug-15 23:25N 31°11' E 122°39'0 0.1
2017-Aug-15 21:30N 31°11' E 122°39'2 4.6
2017-Aug-15 21:00N 31°11' E 122°41'4 8.5
2017-Aug-15 20:30N 31°09' E 122°45'811.2
2017-Aug-15 19:46N 31°03' E 122°53'312.6
2017-Aug-15 19:30N 31°02' E 122°56'611.7
2017-Aug-15 19:00N 30°60' E 123°03'6410.4
2017-Aug-15 12:53N 29°56' E 123°07'411.9
2017-Aug-15 12:31N 29°52' E 123°04'712.4
2017-Aug-15 11:58N 29°49' E 122°58'612.4
2017-Aug-15 11:30N 29°46' E 122°52'612.4
2017-Aug-15 11:01N 29°43' E 122°46'612.3
2017-Aug-15 10:30N 29°41' E 122°39'612.1
2017-Aug-15 10:00N 29°40' E 122°32'612.4
2017-Aug-15 09:30N 29°42' E 122°26'511.0
2017-Aug-15 09:00N 29°44' E 122°20'5 9.0
2017-Aug-15 08:30N 29°47' E 122°16'5 9.1
2017-Aug-15 08:01N 29°50' E 122°12'510.8
2017-Aug-15 07:30N 29°55' E 122°09'2 4.4
2017-Aug-15 07:00N 29°54' E 122°06'0 0.2
2017-Aug-15 06:22N 29°54' E 122°06'0 0.0
2017-Aug-15 05:58N 29°54' E 122°06'0 0.0
2017-Aug-15 04:58N 29°54' E 122°06'0 0.0
2017-Aug-15 04:28N 29°54' E 122°06'0 0.0
2017-Aug-15 03:58N 29°54' E 122°06'0 0.0
2017-Aug-15 03:28N 29°54' E 122°06'0 0.0
2017-Aug-15 02:58N 29°54' E 122°06'0 0.0
2017-Aug-15 02:28N 29°54' E 122°06'0 0.0
2017-Aug-15 01:59N 29°54' E 122°06'0 0.0
2017-Aug-15 01:28N 29°54' E 122°06'0 0.0
2017-Aug-15 00:58N 29°54' E 122°06'0 0.0
2017-Aug-15 00:28N 29°54' E 122°06'0 0.0
2017-Aug-14 23:58N 29°54' E 122°06'0 0.0
2017-Aug-14 23:29N 29°54' E 122°06'0 0.0
2017-Aug-14 22:52N 29°54' E 122°06'0 0.0
2017-Aug-14 22:28N 29°54' E 122°06'0 0.0
2017-Aug-14 21:52N 29°54' E 122°06'0 0.0
2017-Aug-14 21:28N 29°54' E 122°06'0 0.0
2017-Aug-14 20:52N 29°54' E 122°06'0 0.0
2017-Aug-14 20:28N 29°54' E 122°06'0 0.0
2017-Aug-14 19:52N 29°54' E 122°06'0 0.0
2017-Aug-14 19:28N 29°54' E 122°06'0 0.0
2017-Aug-14 18:52N 29°54' E 122°06'0 0.0
2017-Aug-14 18:10N 29°54' E 122°06'0 0.3
2017-Aug-14 17:58N 29°54' E 122°06'0 0.1
2017-Aug-14 17:29N 29°54' E 122°06'0 0.0
2017-Aug-14 16:58N 29°54' E 122°06'0 0.0
2017-Aug-14 16:28N 29°54' E 122°06'0 0.0
2017-Aug-14 15:58N 29°54' E 122°06'0 0.0
2017-Aug-14 15:22N 29°54' E 122°06'0 0.0
2017-Aug-14 14:58N 29°54' E 122°06'0 0.0
2017-Aug-14 14:28N 29°54' E 122°06'0 0.0
2017-Aug-14 13:58N 29°54' E 122°06'0 0.0
2017-Aug-14 13:28N 29°54' E 122°06'0 0.0
2017-Aug-14 12:52N 29°54' E 122°06'0 0.0
2017-Aug-14 12:28N 29°54' E 122°06'0 0.0
2017-Aug-14 11:58N 29°54' E 122°06'0 0.0
2017-Aug-14 11:28N 29°54' E 122°06'0 0.0
2017-Aug-14 10:46N 29°54' E 122°06'0 0.0
2017-Aug-14 10:28N 29°54' E 122°06'0 0.0
2017-Aug-14 09:58N 29°54' E 122°06'0 0.0
2017-Aug-14 09:25N 29°54' E 122°06'0 0.0
2017-Aug-14 08:58N 29°54' E 122°06'0 0.0
2017-Aug-14 08:28N 29°54' E 122°06'0 0.0
2017-Aug-14 07:46N 29°54' E 122°06'0 0.0
2017-Aug-14 07:28N 29°54' E 122°06'0 0.1
2017-Aug-14 07:01N 29°54' E 122°06'1 2.1
2017-Aug-14 06:30N 29°55' E 122°07'3 5.8
2017-Aug-14 06:00N 29°54' E 122°10'5 9.3
2017-Aug-14 05:30N 29°50' E 122°13'611.0
2017-Aug-14 05:00N 29°46' E 122°17'4 7.6
2017-Aug-14 04:30N 29°46' E 122°22'3 5.6
2017-Aug-14 04:00N 29°46' E 122°25'2 4.7
2017-Aug-14 03:30N 29°46' E 122°28'0 0.1
2017-Aug-14 02:44N 29°45' E 122°28'0 0.2
2017-Aug-14 02:26N 29°45' E 122°28'0 0.0
2017-Aug-14 01:59N 29°45' E 122°28'0 0.1
2017-Aug-14 01:29N 29°45' E 122°28'0 0.1
2017-Aug-14 00:59N 29°45' E 122°28'0 0.0
2017-Aug-14 00:29N 29°45' E 122°28'0 0.1
2017-Aug-13 23:59N 29°45' E 122°28'0 0.0
2017-Aug-13 23:26N 29°45' E 122°28'0 0.0
2017-Aug-13 22:59N 29°45' E 122°28'0 0.1
2017-Aug-13 22:14N 29°45' E 122°28'0 0.3
2017-Aug-13 21:53N 29°46' E 122°28'0 0.8
2017-Aug-13 21:30N 29°46' E 122°28'3 5.4
2017-Aug-13 21:00N 29°46' E 122°31'5 9.5
2017-Aug-13 20:30N 29°46' E 122°37'510.3
2017-Aug-13 19:59N 29°47' E 122°43'8011.2
2017-Aug-13 12:47N 28°44' E 123°41'311.9
2017-Aug-13 12:30N 28°41' E 123°43'  

Dump ship's entire track history